createdAt,value
2022-10-07T00:02:07.896Z,101927.24
2022-10-07T00:04:45.282Z,101927.50
2022-10-07T00:07:17.610Z,101928.99
2022-10-07T00:09:49.891Z,101929.06
2022-10-07T00:12:22.159Z,101929.24
2022-10-07T00:14:54.455Z,101925.19
2022-10-07T00:17:26.618Z,101921.57
2022-10-07T00:19:58.757Z,101922.98
2022-10-07T00:22:31.165Z,101924.13
2022-10-07T00:25:03.330Z,101926.91
2022-10-07T00:27:35.515Z,101925.58
2022-10-07T00:30:08.959Z,101927.55
2022-10-07T00:32:41.090Z,101929.92
2022-10-07T00:35:14.146Z,101933.33
2022-10-07T00:37:46.876Z,101925.91
2022-10-07T00:40:19.517Z,101931.28
2022-10-07T00:42:51.949Z,101929.47
2022-10-07T00:45:24.500Z,101930.92
2022-10-07T00:47:56.816Z,101923.90
2022-10-07T00:50:30.727Z,101924.75
2022-10-07T00:53:05.578Z,101920.72
2022-10-07T00:55:37.867Z,101919.73
2022-10-07T00:58:10.117Z,101916.52
2022-10-07T01:00:42.617Z,101915.11
2022-10-07T01:03:15.299Z,101915.80
2022-10-07T01:05:47.530Z,101914.89
2022-10-07T01:08:21.115Z,101914.15
2022-10-07T01:11:14.061Z,101911.75
2022-10-07T01:13:59.244Z,101911.98
2022-10-07T01:16:39.028Z,101912.96
2022-10-07T01:19:28.735Z,101917.67
2022-10-07T01:22:12.735Z,101918.10
2022-10-07T01:24:48.146Z,101917.27
2022-10-07T01:27:23.192Z,101919.13
2022-10-07T01:29:58.751Z,101922.34
2022-10-07T01:32:34.516Z,101923.71
2022-10-07T01:35:12.287Z,101924.60
2022-10-07T01:37:48.595Z,101921.59
2022-10-07T01:40:25.549Z,101929.79
2022-10-07T01:42:59.386Z,101927.81
2022-10-07T01:45:33.702Z,101927.08
2022-10-07T01:48:05.953Z,101922.30
2022-10-07T01:50:39.327Z,101923.38
2022-10-07T01:53:35.171Z,101922.77
2022-10-07T01:56:32.840Z,101923.21
2022-10-07T01:59:25.663Z,101918.71
2022-10-07T02:02:08.808Z,101922.20
2022-10-07T02:04:59.412Z,101920.66
2022-10-07T02:07:44.443Z,101918.82
2022-10-07T02:10:25.460Z,101921.30
2022-10-07T02:13:06.129Z,101912.97
2022-10-07T02:15:43.999Z,101910.49
2022-10-07T02:18:20.832Z,101916.92
2022-10-07T02:20:56.021Z,101910.00
2022-10-07T02:23:29.748Z,101918.04
2022-10-07T02:26:04.478Z,101913.70
2022-10-07T02:28:40.873Z,101915.77
2022-10-07T02:31:18.001Z,101916.27
2022-10-07T02:33:53.368Z,101922.23
2022-10-07T02:36:31.470Z,101917.45
2022-10-07T02:39:04.006Z,101923.35
2022-10-07T02:41:45.007Z,101922.64
2022-10-07T02:44:26.897Z,101921.12
2022-10-07T02:47:04.083Z,101917.17
2022-10-07T02:49:39.342Z,101921.42
2022-10-07T02:52:15.299Z,101924.48
2022-10-07T02:54:48.709Z,101923.50
2022-10-07T02:57:24.863Z,101924.04
2022-10-07T03:00:01.161Z,101927.32
2022-10-07T03:02:41.272Z,101930.19
2022-10-07T03:05:19.390Z,101931.94
2022-10-07T03:07:56.504Z,101936.61
2022-10-07T03:10:29.452Z,101933.39
2022-10-07T03:13:05.206Z,101932.98
2022-10-07T03:15:42.152Z,101933.00
2022-10-07T03:18:28.510Z,101933.46
2022-10-07T03:21:02.091Z,101932.35
2022-10-07T03:23:34.293Z,101931.42
2022-10-07T03:26:06.805Z,101929.90
2022-10-07T03:28:39.133Z,101928.06
2022-10-07T03:31:13.189Z,101934.45
2022-10-07T03:33:45.731Z,101934.14
2022-10-07T03:36:17.953Z,101932.58
2022-10-07T03:38:50.179Z,101929.80
2022-10-07T03:41:22.616Z,101929.57
2022-10-07T03:43:59.248Z,101933.58
2022-10-07T03:46:31.635Z,101932.02
2022-10-07T03:49:05.056Z,101932.45
2022-10-07T03:51:37.349Z,101936.80
2022-10-07T03:54:09.836Z,101937.73
2022-10-07T03:56:41.994Z,101935.74
2022-10-07T03:59:14.174Z,101936.44
2022-10-07T04:01:46.477Z,101942.04
2022-10-07T04:04:20.201Z,101939.95
2022-10-07T04:06:52.356Z,101939.81
2022-10-07T04:09:24.639Z,101946.60
2022-10-07T04:11:56.804Z,101946.32
2022-10-07T04:14:28.952Z,101948.42
2022-10-07T04:17:01.128Z,101952.26
2022-10-07T04:19:33.445Z,101949.80
2022-10-07T04:22:08.913Z,101952.21
2022-10-07T04:24:41.368Z,101954.77
2022-10-07T04:27:28.337Z,101955.50
2022-10-07T04:30:06.642Z,101953.23
2022-10-07T04:32:38.801Z,101952.20
2022-10-07T04:35:12.053Z,101952.55
2022-10-07T04:37:44.677Z,101951.18
2022-10-07T04:40:18.911Z,101946.64
2022-10-07T04:43:09.332Z,101949.21
2022-10-07T04:45:41.514Z,101951.34
2022-10-07T04:48:13.663Z,101949.73
2022-10-07T04:50:46.461Z,101952.97
2022-10-07T04:53:19.979Z,101950.01
2022-10-07T04:55:53.234Z,101952.27
2022-10-07T04:58:25.477Z,101961.76
2022-10-07T05:00:59.393Z,101963.14
2022-10-07T05:03:32.208Z,101963.13
2022-10-07T05:06:06.793Z,101963.99
2022-10-07T05:08:38.939Z,101961.98
2022-10-07T05:11:11.180Z,101968.09
2022-10-07T05:13:43.381Z,101972.08
2022-10-07T05:16:15.594Z,101970.02
2022-10-07T05:18:47.961Z,101968.10
2022-10-07T05:21:20.098Z,101975.13
2022-10-07T05:23:52.423Z,101978.47
2022-10-07T05:26:24.594Z,101981.23
2022-10-07T05:28:57.739Z,101980.89
2022-10-07T05:31:30.132Z,101985.55
2022-10-07T05:34:03.039Z,101985.58
2022-10-07T05:36:35.024Z,101987.79
2022-10-07T05:39:07.504Z,101981.78
2022-10-07T05:41:45.763Z,101981.24
2022-10-07T05:44:18.712Z,101979.92
2022-10-07T05:46:50.875Z,101977.91
2022-10-07T05:49:23.044Z,101985.42
2022-10-07T05:51:55.222Z,101986.98
2022-10-07T05:54:27.589Z,101987.41
2022-10-07T05:57:00.276Z,101987.98
2022-10-07T05:59:32.768Z,101993.86
2022-10-07T06:02:05.134Z,101993.15
2022-10-07T06:04:37.380Z,101992.32
2022-10-07T06:07:09.557Z,101992.50
2022-10-07T06:09:59.363Z,101993.89
2022-10-07T06:12:49.352Z,101992.10
2022-10-07T06:15:21.529Z,101992.66
2022-10-07T06:17:53.740Z,101994.09
2022-10-07T06:20:26.097Z,101997.63
2022-10-07T06:22:59.084Z,101996.48
2022-10-07T06:25:31.243Z,101994.27
2022-10-07T06:28:03.483Z,101991.06
2022-10-07T06:30:35.786Z,101997.10
2022-10-07T06:33:08.125Z,101997.30
2022-10-07T06:35:40.357Z,102003.42
2022-10-07T06:38:12.655Z,102001.14
2022-10-07T06:40:44.903Z,102004.50
2022-10-07T06:43:17.067Z,102007.05
2022-10-07T06:45:49.361Z,102003.42
2022-10-07T06:48:21.567Z,102004.17
2022-10-07T06:50:55.132Z,102004.25
2022-10-07T06:53:27.999Z,102003.11
2022-10-07T06:56:05.004Z,102004.90
2022-10-07T06:58:37.490Z,101998.45
2022-10-07T07:01:09.757Z,102002.90
2022-10-07T07:03:42.524Z,102007.33
2022-10-07T07:06:15.120Z,101999.53
2022-10-07T07:08:50.127Z,102004.52
2022-10-07T07:11:38.078Z,102004.38
2022-10-07T07:14:12.704Z,102009.23
2022-10-07T07:16:45.019Z,102010.27
2022-10-07T07:19:17.388Z,102007.10
2022-10-07T07:21:51.321Z,102005.90
2022-10-07T07:24:24.192Z,102001.66
2022-10-07T07:26:56.360Z,102003.21
2022-10-07T07:29:28.716Z,102000.19
2022-10-07T07:32:02.382Z,102002.54
2022-10-07T07:34:36.480Z,101992.74
2022-10-07T07:37:08.837Z,101991.21
2022-10-07T07:39:42.805Z,101994.12
2022-10-07T07:42:15.145Z,101994.19
2022-10-07T07:44:47.391Z,101991.55
2022-10-07T07:47:19.552Z,101990.41
2022-10-07T07:49:53.097Z,101991.46
2022-10-07T07:52:25.777Z,101993.95
2022-10-07T07:54:59.353Z,101990.38
2022-10-07T07:57:32.541Z,101988.25
2022-10-07T08:00:05.542Z,101984.48
2022-10-07T08:02:37.768Z,101988.52
2022-10-07T08:05:10.477Z,101993.05
2022-10-07T08:07:43.186Z,101987.86
2022-10-07T08:10:15.638Z,101984.36
2022-10-07T08:12:47.863Z,101978.45
2022-10-07T08:15:20.158Z,101978.13
2022-10-07T08:17:53.058Z,101974.35
2022-10-07T08:20:25.324Z,101975.95
2022-10-07T08:22:59.101Z,101974.68
2022-10-07T08:25:31.413Z,101975.02
2022-10-07T08:28:03.663Z,101971.30
2022-10-07T08:30:36.567Z,101966.52
2022-10-07T08:33:08.849Z,101964.64
2022-10-07T08:35:41.012Z,101962.84
2022-10-07T08:38:14.627Z,101958.70
2022-10-07T08:40:51.972Z,101960.10
2022-10-07T08:43:26.486Z,101957.25
2022-10-07T08:45:58.896Z,101962.17
2022-10-07T08:48:39.040Z,101959.31
2022-10-07T08:51:21.093Z,101960.48
2022-10-07T08:53:59.146Z,101964.89
2022-10-07T08:56:33.853Z,101958.34
2022-10-07T08:59:18.417Z,101956.60
2022-10-07T09:02:04.008Z,101954.59
2022-10-07T09:04:45.497Z,101954.48
2022-10-07T09:07:25.136Z,101950.87
2022-10-07T09:10:01.986Z,101944.88
2022-10-07T09:12:39.812Z,101939.92
2022-10-07T09:15:21.287Z,101935.73
2022-10-07T09:17:59.515Z,101933.48
2022-10-07T09:20:36.815Z,101927.04
2022-10-07T09:23:15.524Z,101923.86
2022-10-07T09:25:47.930Z,101922.77
2022-10-07T09:28:25.202Z,101918.55
2022-10-07T09:30:57.939Z,101910.31
2022-10-07T09:33:31.082Z,101909.23
2022-10-07T09:36:09.650Z,101907.96
2022-10-07T09:38:45.796Z,101905.92
2022-10-07T09:41:29.088Z,101894.55
2022-10-07T09:44:07.378Z,101893.63
2022-10-07T09:46:49.513Z,101891.17
2022-10-07T09:49:37.287Z,101890.91
2022-10-07T09:52:16.975Z,101891.09
2022-10-07T09:54:51.873Z,101885.84
2022-10-07T09:57:34.105Z,101887.36
2022-10-07T10:00:29.390Z,101878.61
2022-10-07T10:03:07.686Z,101867.25
2022-10-07T10:05:41.696Z,101873.71
2022-10-07T10:08:26.916Z,101863.08
2022-10-07T10:11:01.513Z,101864.59
2022-10-07T10:13:36.243Z,101860.05
2022-10-07T10:16:34.115Z,101850.48
2022-10-07T10:19:07.492Z,101851.39
2022-10-07T10:21:42.883Z,101850.23
2022-10-07T10:24:15.377Z,101846.43
2022-10-07T10:27:03.348Z,101844.00
2022-10-07T10:29:49.036Z,101840.60
2022-10-07T10:32:57.357Z,101837.80
2022-10-07T10:35:32.475Z,101833.58
2022-10-07T10:38:17.610Z,101828.50
2022-10-07T10:40:58.170Z,101815.16
2022-10-07T10:43:38.572Z,101816.22
2022-10-07T10:46:36.469Z,101813.92
2022-10-07T10:49:19.923Z,101809.94
2022-10-07T10:52:13.120Z,101807.59
2022-10-07T10:55:00.271Z,101798.91
2022-10-07T10:57:45.456Z,101798.88
2022-10-07T11:00:20.241Z,101799.50
2022-10-07T11:03:08.657Z,101790.96
2022-10-07T11:05:42.691Z,101786.79
2022-10-07T11:08:24.096Z,101789.83
2022-10-07T11:11:02.616Z,101787.09
2022-10-07T11:13:43.637Z,101787.90
2022-10-07T11:16:19.475Z,101779.69
2022-10-07T11:18:57.446Z,101775.39
2022-10-07T11:21:34.639Z,101771.17
2022-10-07T11:24:13.894Z,101767.84
2022-10-07T11:26:51.611Z,101767.39
2022-10-07T11:29:32.336Z,101761.86
2022-10-07T11:32:09.533Z,101760.82
2022-10-07T11:34:53.621Z,101760.05
2022-10-07T11:37:34.985Z,101756.88
2022-10-07T11:40:09.725Z,101751.27
2022-10-07T11:42:46.615Z,101750.73
2022-10-07T11:45:26.811Z,101749.13
2022-10-07T11:48:02.769Z,101748.17
2022-10-07T11:50:41.327Z,101747.42
2022-10-07T11:53:20.956Z,101746.73
2022-10-07T11:56:00.361Z,101745.13
2022-10-07T11:58:37.404Z,101742.73
2022-10-07T12:01:46.123Z,101735.71
2022-10-07T12:04:35.596Z,101735.16
2022-10-07T12:07:39.242Z,101730.63
2022-10-07T12:10:35.418Z,101739.48
2022-10-07T12:13:23.019Z,101740.95
2022-10-07T12:15:56.881Z,101736.83
2022-10-07T12:18:32.369Z,101739.34
2022-10-07T12:21:04.268Z,101738.19
2022-10-07T12:23:44.838Z,101734.04
2022-10-07T12:26:53.561Z,101738.44
2022-10-07T12:29:50.291Z,101738.19
2022-10-07T12:32:57.078Z,101735.84
2022-10-07T12:35:51.492Z,101730.31
2022-10-07T12:38:31.534Z,101730.05
2022-10-07T12:41:25.160Z,101733.90
2022-10-07T12:44:06.429Z,101730.59
2022-10-07T12:46:47.949Z,101729.88
2022-10-07T12:49:26.865Z,101722.39
2022-10-07T12:52:12.775Z,101728.02
2022-10-07T12:54:47.800Z,101731.88
2022-10-07T12:57:24.388Z,101729.44
2022-10-07T13:00:08.007Z,101728.80
2022-10-07T13:03:17.493Z,101727.55
2022-10-07T13:06:28.719Z,101721.28
2022-10-07T13:09:25.939Z,101717.55
2022-10-07T13:12:21.440Z,101718.40
2022-10-07T13:15:05.216Z,101720.28
2022-10-07T13:17:48.462Z,101719.54
2022-10-07T13:20:44.850Z,101714.56
2022-10-07T13:23:26.077Z,101712.19
2022-10-07T13:26:03.037Z,101707.31
2022-10-07T13:28:46.025Z,101704.73
2022-10-07T13:31:22.430Z,101699.98
2022-10-07T13:33:56.256Z,101701.85
2022-10-07T13:36:32.733Z,101701.88
2022-10-07T13:39:20.726Z,101697.42
2022-10-07T13:41:55.838Z,101700.64
2022-10-07T13:44:32.612Z,101694.65
2022-10-07T13:47:07.583Z,101689.81
2022-10-07T13:49:43.809Z,101691.69
2022-10-07T13:52:22.419Z,101690.47
2022-10-07T13:54:54.889Z,101684.98
2022-10-07T13:57:29.465Z,101681.44
2022-10-07T14:00:02.919Z,101682.16
2022-10-07T14:02:40.082Z,101677.98
2022-10-07T14:05:22.129Z,101680.65
2022-10-07T14:07:58.332Z,101674.77
2022-10-07T14:10:32.222Z,101679.27
2022-10-07T14:13:09.315Z,101673.80
2022-10-07T14:15:48.804Z,101673.45
2022-10-07T14:18:21.394Z,101676.64
2022-10-07T14:20:56.764Z,101678.65
2022-10-07T14:23:31.291Z,101675.88
2022-10-07T14:26:05.450Z,101675.94
2022-10-07T14:28:39.511Z,101671.24
2022-10-07T14:31:40.696Z,101672.34
2022-10-07T14:34:34.238Z,101668.17
2022-10-07T14:37:09.514Z,101667.83
2022-10-07T14:39:47.801Z,101663.73
2022-10-07T14:42:23.236Z,101668.86
2022-10-07T14:44:56.724Z,101667.90
2022-10-07T14:47:31.572Z,101665.98
2022-10-07T14:50:03.729Z,101670.98
2022-10-07T14:52:44.540Z,101672.80
2022-10-07T14:55:20.559Z,101670.17
2022-10-07T14:57:52.977Z,101673.20
2022-10-07T15:00:29.458Z,101672.70
2022-10-07T15:03:03.036Z,101670.70
2022-10-07T15:05:35.282Z,101670.89
2022-10-07T15:08:07.617Z,101668.90
2022-10-07T15:10:41.204Z,101669.06
2022-10-07T15:13:14.449Z,101676.59
2022-10-07T15:15:49.251Z,101673.54
2022-10-07T15:18:21.744Z,101672.45
2022-10-07T15:20:58.962Z,101673.42
2022-10-07T15:23:31.497Z,101671.21
2022-10-07T15:26:03.883Z,101673.62
2022-10-07T15:28:37.391Z,101668.02
2022-10-07T15:31:11.573Z,101668.14
2022-10-07T15:33:44.498Z,101664.06
2022-10-07T15:36:17.893Z,101662.86
2022-10-07T15:38:50.133Z,101662.21
2022-10-07T15:41:36.868Z,101665.56
2022-10-07T15:44:16.121Z,101667.27
2022-10-07T15:46:50.664Z,101667.56
2022-10-07T15:49:23.423Z,101667.73
2022-10-07T15:51:56.913Z,101670.02
2022-10-07T15:54:29.128Z,101670.97
2022-10-07T15:57:01.554Z,101669.58
2022-10-07T15:59:33.735Z,101672.90
2022-10-07T16:02:10.379Z,101673.30
2022-10-07T16:04:47.580Z,101678.53
2022-10-07T16:07:19.849Z,101679.25
2022-10-07T16:09:52.143Z,101678.48
2022-10-07T16:12:24.299Z,101678.35
2022-10-07T16:14:56.573Z,101677.09
2022-10-07T16:17:30.045Z,101680.14
2022-10-07T16:20:05.580Z,101679.14
2022-10-07T16:22:41.215Z,101681.70
2022-10-07T16:25:14.726Z,101681.80
2022-10-07T16:28:04.633Z,101685.02
2022-10-07T16:30:42.965Z,101683.92
2022-10-07T16:33:15.505Z,101682.31
2022-10-07T16:35:47.643Z,101687.17
2022-10-07T16:38:22.503Z,101688.24
2022-10-07T16:40:57.892Z,101691.70
2022-10-07T16:43:30.248Z,101691.09
2022-10-07T16:46:04.587Z,101696.95
2022-10-07T16:48:41.566Z,101701.14
2022-10-07T16:51:15.345Z,101698.05
2022-10-07T16:53:48.998Z,101697.91
2022-10-07T16:56:22.109Z,101699.23
2022-10-07T16:59:00.125Z,101698.14
2022-10-07T17:01:36.387Z,101699.07
2022-10-07T17:04:09.072Z,101700.48
2022-10-07T17:06:42.986Z,101697.05
2022-10-07T17:09:15.913Z,101700.58
2022-10-07T17:11:48.306Z,101698.27
2022-10-07T17:14:22.109Z,101694.23
2022-10-07T17:16:57.658Z,101695.35
2022-10-07T17:19:31.017Z,101694.86
2022-10-07T17:22:04.173Z,101694.79
2022-10-07T17:24:37.369Z,101694.17
2022-10-07T17:27:09.665Z,101696.84
2022-10-07T17:29:41.825Z,101692.93
2022-10-07T17:32:14.625Z,101692.20
2022-10-07T17:34:46.877Z,101695.42
2022-10-07T17:37:19.056Z,101695.41
2022-10-07T17:39:51.260Z,101695.23
2022-10-07T17:42:23.465Z,101693.48
2022-10-07T17:44:55.677Z,101693.48
2022-10-07T17:47:27.958Z,101689.38
2022-10-07T17:50:01.346Z,101693.13
2022-10-07T17:52:33.587Z,101688.21
2022-10-07T17:55:07.072Z,101689.54
2022-10-07T17:57:39.272Z,101689.52
2022-10-07T18:00:13.039Z,101689.58
2022-10-07T18:02:48.069Z,101688.95
2022-10-07T18:05:20.952Z,101693.06
2022-10-07T18:07:53.145Z,101690.73
2022-10-07T18:10:25.909Z,101695.19
2022-10-07T18:13:11.936Z,101697.80
2022-10-07T18:15:44.184Z,101700.56
2022-10-07T18:18:16.357Z,101700.60
2022-10-07T18:20:48.597Z,101700.30
2022-10-07T18:23:20.830Z,101699.76
2022-10-07T18:25:53.800Z,101699.31
2022-10-07T18:28:26.050Z,101698.16
2022-10-07T18:30:58.279Z,101696.22
2022-10-07T18:33:31.792Z,101691.61
2022-10-07T18:36:07.180Z,101691.84
2022-10-07T18:38:40.898Z,101692.85
2022-10-07T18:41:14.829Z,101694.29
2022-10-07T18:43:48.441Z,101690.79
2022-10-07T18:46:21.462Z,101693.27
2022-10-07T18:48:54.296Z,101691.04
2022-10-07T18:51:26.876Z,101693.42
2022-10-07T18:53:59.403Z,101694.98
2022-10-07T18:56:31.663Z,101693.83
2022-10-07T18:59:04.928Z,101694.92
2022-10-07T19:01:37.877Z,101694.23
2022-10-07T19:04:11.295Z,101691.40
2022-10-07T19:06:46.143Z,101693.52
2022-10-07T19:09:20.761Z,101694.69
2022-10-07T19:11:53.181Z,101690.61
2022-10-07T19:14:28.167Z,101687.51
2022-10-07T19:17:00.605Z,101690.21
2022-10-07T19:19:34.352Z,101694.43
2022-10-07T19:22:06.753Z,101693.54
2022-10-07T19:24:56.499Z,101695.21
2022-10-07T19:27:28.797Z,101695.31
2022-10-07T19:30:01.352Z,101691.85
2022-10-07T19:32:33.659Z,101697.75
2022-10-07T19:35:06.571Z,101698.84
2022-10-07T19:37:38.765Z,101695.02
2022-10-07T19:40:11.760Z,101696.79
2022-10-07T19:42:44.000Z,101698.88
2022-10-07T19:45:16.425Z,101697.29
2022-10-07T19:47:49.363Z,101698.52
2022-10-07T19:50:21.733Z,101700.29
2022-10-07T19:52:57.004Z,101700.54
2022-10-07T19:55:29.864Z,101702.40
2022-10-07T19:58:03.477Z,101701.35
2022-10-07T20:00:35.660Z,101702.63
2022-10-07T20:03:07.897Z,101705.52
2022-10-07T20:05:42.252Z,101705.38
2022-10-07T20:08:14.552Z,101701.23
2022-10-07T20:10:46.768Z,101699.66
2022-10-07T20:13:18.945Z,101694.55
2022-10-07T20:15:51.300Z,101696.96
2022-10-07T20:18:23.478Z,101695.02
2022-10-07T20:21:01.193Z,101692.88
2022-10-07T20:23:37.444Z,101696.53
2022-10-07T20:26:12.374Z,101697.23
2022-10-07T20:28:44.788Z,101697.34
2022-10-07T20:31:19.361Z,101699.34
2022-10-07T20:33:53.548Z,101700.52
2022-10-07T20:36:28.310Z,101697.30
2022-10-07T20:39:19.841Z,101697.92
2022-10-07T20:42:10.249Z,101698.46
2022-10-07T20:44:42.447Z,101696.95
2022-10-07T20:47:14.709Z,101694.67
2022-10-07T20:49:48.734Z,101693.75
2022-10-07T20:52:23.004Z,101697.95
2022-10-07T20:54:56.184Z,101695.32
2022-10-07T20:57:33.504Z,101695.95
2022-10-07T21:00:07.119Z,101696.25
2022-10-07T21:02:39.487Z,101693.48
2022-10-07T21:05:12.222Z,101687.39
2022-10-07T21:07:44.405Z,101688.25
2022-10-07T21:10:16.881Z,101684.23
2022-10-07T21:12:49.882Z,101680.63
2022-10-07T21:15:22.190Z,101682.73
2022-10-07T21:17:55.458Z,101682.83
2022-10-07T21:20:27.650Z,101679.90
2022-10-07T21:22:59.812Z,101677.77
2022-10-07T21:25:32.748Z,101671.73
2022-10-07T21:28:04.998Z,101668.06
2022-10-07T21:30:37.198Z,101669.67
2022-10-07T21:33:13.060Z,101668.02
2022-10-07T21:35:45.197Z,101658.95
2022-10-07T21:38:17.571Z,101655.81
2022-10-07T21:40:50.348Z,101655.81
2022-10-07T21:43:22.675Z,101656.60
2022-10-07T21:45:58.451Z,101653.80
2022-10-07T21:48:30.350Z,101651.64
2022-10-07T21:51:09.286Z,101649.73
2022-10-07T21:53:41.994Z,101645.80
2022-10-07T21:56:17.016Z,101641.67
2022-10-07T21:58:51.241Z,101639.42
2022-10-07T22:01:25.511Z,101638.27
2022-10-07T22:03:59.520Z,101634.11
2022-10-07T22:06:50.065Z,101631.87
2022-10-07T22:09:22.303Z,101626.30
2022-10-07T22:11:54.464Z,101625.70
2022-10-07T22:14:27.823Z,101624.19
2022-10-07T22:17:00.105Z,101622.52
2022-10-07T22:19:32.369Z,101620.58
2022-10-07T22:22:04.653Z,101621.36
2022-10-07T22:24:36.814Z,101619.90
2022-10-07T22:27:09.054Z,101615.39
2022-10-07T22:29:41.263Z,101617.19
2022-10-07T22:32:13.441Z,101614.95
2022-10-07T22:35:03.221Z,101610.77
2022-10-07T22:37:35.387Z,101613.48
2022-10-07T22:40:09.108Z,101615.27
2022-10-07T22:42:41.342Z,101615.27
2022-10-07T22:45:14.023Z,101614.17
2022-10-07T22:47:46.557Z,101613.96
2022-10-07T22:50:18.936Z,101619.64
2022-10-07T22:52:51.126Z,101614.40
2022-10-07T22:55:23.577Z,101609.91
2022-10-07T22:57:55.755Z,101613.83
2022-10-07T23:00:28.014Z,101611.95
2022-10-07T23:03:00.317Z,101611.57
2022-10-07T23:05:36.208Z,101612.38
2022-10-07T23:08:06.711Z,101613.70
2022-10-07T23:10:39.450Z,101613.17
2022-10-07T23:13:11.691Z,101609.83
2022-10-07T23:15:43.932Z,101611.46
2022-10-07T23:18:16.177Z,101611.21
2022-10-07T23:20:48.822Z,101610.00
2022-10-07T23:23:21.006Z,101608.72
2022-10-07T23:25:53.257Z,101607.80
2022-10-07T23:28:26.382Z,101610.44
2022-10-07T23:30:58.988Z,101606.52
2022-10-07T23:33:31.707Z,101608.99
2022-10-07T23:36:05.920Z,101610.17
2022-10-07T23:38:39.917Z,101607.89
2022-10-07T23:41:12.460Z,101609.80
2022-10-07T23:43:45.011Z,101611.45
2022-10-07T23:46:17.398Z,101609.40
2022-10-07T23:48:50.308Z,101606.38
2022-10-07T23:51:24.215Z,101604.45
2022-10-07T23:53:59.081Z,101603.71
2022-10-07T23:56:31.959Z,101598.75
2022-10-07T23:59:04.233Z,101600.86
